sensor_id;sensor_type;location;lat;lon;timestamp;P1;durP1;ratioP1;P2;durP2;ratioP2
13764;SDS011;6953;48.810;9.204;2022-07-29T00:01:48;0.40;;;0.40;;
13764;SDS011;6953;48.810;9.204;2022-07-29T00:04:14;0.40;;;0.40;;
13764;SDS011;6953;48.810;9.204;2022-07-29T00:06:39;0.40;;;0.40;;
13764;SDS011;6953;48.810;9.204;2022-07-29T00:09:05;0.45;;;0.45;;
13764;SDS011;6953;48.810;9.204;2022-07-29T00:11:31;0.40;;;0.40;;
13764;SDS011;6953;48.810;9.204;2022-07-29T00:13:56;0.40;;;0.40;;
13764;SDS011;6953;48.810;9.204;2022-07-29T00:16:22;0.43;;;0.43;;
13764;SDS011;6953;48.810;9.204;2022-07-29T00:18:48;0.40;;;0.40;;
13764;SDS011;6953;48.810;9.204;2022-07-29T00:21:13;0.40;;;0.40;;
13764;SDS011;6953;48.810;9.204;2022-07-29T00:23:39;0.40;;;0.40;;
13764;SDS011;6953;48.810;9.204;2022-07-29T00:26:04;0.40;;;0.40;;
13764;SDS011;6953;48.810;9.204;2022-07-29T00:28:29;0.40;;;0.40;;
13764;SDS011;6953;48.810;9.204;2022-07-29T00:30:55;0.40;;;0.40;;
13764;SDS011;6953;48.810;9.204;2022-07-29T00:33:20;0.30;;;0.30;;
13764;SDS011;6953;48.810;9.204;2022-07-29T00:35:46;0.40;;;0.40;;
13764;SDS011;6953;48.810;9.204;2022-07-29T00:38:13;0.40;;;0.40;;
13764;SDS011;6953;48.810;9.204;2022-07-29T00:40:40;0.40;;;0.40;;
13764;SDS011;6953;48.810;9.204;2022-07-29T00:43:06;0.40;;;0.40;;
13764;SDS011;6953;48.810;9.204;2022-07-29T00:45:32;0.40;;;0.40;;
13764;SDS011;6953;48.810;9.204;2022-07-29T00:47:57;0.40;;;0.40;;
13764;SDS011;6953;48.810;9.204;2022-07-29T00:50:23;0.40;;;0.40;;
13764;SDS011;6953;48.810;9.204;2022-07-29T00:52:48;0.30;;;0.30;;
13764;SDS011;6953;48.810;9.204;2022-07-29T00:55:15;0.30;;;0.30;;
13764;SDS011;6953;48.810;9.204;2022-07-29T00:57:41;0.40;;;0.40;;
13764;SDS011;6953;48.810;9.204;2022-07-29T01:00:09;0.40;;;0.40;;
13764;SDS011;6953;48.810;9.204;2022-07-29T01:02:36;0.40;;;0.40;;
13764;SDS011;6953;48.810;9.204;2022-07-29T01:05:02;0.50;;;0.50;;
13764;SDS011;6953;48.810;9.204;2022-07-29T01:07:32;0.30;;;0.30;;
13764;SDS011;6953;48.810;9.204;2022-07-29T01:10:00;0.40;;;0.40;;
13764;SDS011;6953;48.810;9.204;2022-07-29T01:12:28;0.40;;;0.40;;
13764;SDS011;6953;48.810;9.204;2022-07-29T01:14:57;0.40;;;0.40;;
13764;SDS011;6953;48.810;9.204;2022-07-29T01:17:25;0.30;;;0.30;;
13764;SDS011;6953;48.810;9.204;2022-07-29T01:20:14;0.40;;;0.40;;
13764;SDS011;6953;48.810;9.204;2022-07-29T01:26:00;0.35;;;0.35;;
13764;SDS011;6953;48.810;9.204;2022-07-29T01:31:33;0.40;;;0.40;;
13764;SDS011;6953;48.810;9.204;2022-07-29T01:34:17;0.30;;;0.30;;
13764;SDS011;6953;48.810;9.204;2022-07-29T01:36:48;0.40;;;0.40;;
13764;SDS011;6953;48.810;9.204;2022-07-29T01:39:20;0.30;;;0.30;;
13764;SDS011;6953;48.810;9.204;2022-07-29T01:44:59;0.40;;;0.40;;
13764;SDS011;6953;48.810;9.204;2022-07-29T01:48:16;0.40;;;0.40;;
13764;SDS011;6953;48.810;9.204;2022-07-29T01:50:34;0.40;;;0.40;;
13764;SDS011;6953;48.810;9.204;2022-07-29T01:53:07;0.40;;;0.40;;
13764;SDS011;6953;48.810;9.204;2022-07-29T01:55:36;0.32;;;0.32;;
13764;SDS011;6953;48.810;9.204;2022-07-29T01:58:09;0.40;;;0.40;;
13764;SDS011;6953;48.810;9.204;2022-07-29T02:00:36;0.40;;;0.40;;
13764;SDS011;6953;48.810;9.204;2022-07-29T02:03:04;0.35;;;0.35;;
13764;SDS011;6953;48.810;9.204;2022-07-29T02:05:34;0.40;;;0.40;;
13764;SDS011;6953;48.810;9.204;2022-07-29T02:08:01;0.40;;;0.40;;
13764;SDS011;6953;48.810;9.204;2022-07-29T02:10:27;0.30;;;0.30;;
13764;SDS011;6953;48.810;9.204;2022-07-29T02:12:55;0.40;;;0.40;;
13764;SDS011;6953;48.810;9.204;2022-07-29T02:15:23;0.40;;;0.40;;
13764;SDS011;6953;48.810;9.204;2022-07-29T02:17:52;0.30;;;0.30;;
13764;SDS011;6953;48.810;9.204;2022-07-29T02:20:22;0.30;;;0.30;;
13764;SDS011;6953;48.810;9.204;2022-07-29T02:22:51;0.40;;;0.40;;
13764;SDS011;6953;48.810;9.204;2022-07-29T02:25:18;0.30;;;0.30;;
13764;SDS011;6953;48.810;9.204;2022-07-29T02:27:45;0.30;;;0.30;;
13764;SDS011;6953;48.810;9.204;2022-07-29T02:30:13;0.40;;;0.40;;
13764;SDS011;6953;48.810;9.204;2022-07-29T02:32:39;0.40;;;0.40;;
13764;SDS011;6953;48.810;9.204;2022-07-29T02:35:07;0.40;;;0.40;;
13764;SDS011;6953;48.810;9.204;2022-07-29T02:37:33;0.40;;;0.40;;
13764;SDS011;6953;48.810;9.204;2022-07-29T02:40:01;0.40;;;0.40;;
13764;SDS011;6953;48.810;9.204;2022-07-29T02:42:28;0.40;;;0.40;;
13764;SDS011;6953;48.810;9.204;2022-07-29T02:44:54;0.40;;;0.40;;
13764;SDS011;6953;48.810;9.204;2022-07-29T02:52:58;0.40;;;0.40;;
13764;SDS011;6953;48.810;9.204;2022-07-29T02:55:37;0.38;;;0.38;;
13764;SDS011;6953;48.810;9.204;2022-07-29T02:58:19;0.30;;;0.30;;
13764;SDS011;6953;48.810;9.204;2022-07-29T03:00:53;0.30;;;0.30;;
13764;SDS011;6953;48.810;9.204;2022-07-29T03:03:21;0.40;;;0.40;;
13764;SDS011;6953;48.810;9.204;2022-07-29T03:05:52;0.32;;;0.32;;
13764;SDS011;6953;48.810;9.204;2022-07-29T03:08:20;0.30;;;0.30;;
13764;SDS011;6953;48.810;9.204;2022-07-29T03:10:46;0.40;;;0.40;;
13764;SDS011;6953;48.810;9.204;2022-07-29T03:13:13;0.30;;;0.30;;
13764;SDS011;6953;48.810;9.204;2022-07-29T03:15:39;0.30;;;0.30;;
13764;SDS011;6953;48.810;9.204;2022-07-29T03:18:07;0.40;;;0.40;;
13764;SDS011;6953;48.810;9.204;2022-07-29T03:20:33;0.30;;;0.30;;
13764;SDS011;6953;48.810;9.204;2022-07-29T03:22:58;0.40;;;0.40;;
13764;SDS011;6953;48.810;9.204;2022-07-29T03:25:24;0.35;;;0.35;;
13764;SDS011;6953;48.810;9.204;2022-07-29T03:27:49;0.40;;;0.40;;
13764;SDS011;6953;48.810;9.204;2022-07-29T03:30:15;0.40;;;0.40;;
13764;SDS011;6953;48.810;9.204;2022-07-29T03:32:41;0.30;;;0.30;;
13764;SDS011;6953;48.810;9.204;2022-07-29T03:35:06;0.40;;;0.40;;
13764;SDS011;6953;48.810;9.204;2022-07-29T03:37:32;0.40;;;0.40;;
13764;SDS011;6953;48.810;9.204;2022-07-29T03:39:58;0.38;;;0.38;;
13764;SDS011;6953;48.810;9.204;2022-07-29T03:42:27;0.30;;;0.30;;
13764;SDS011;6953;48.810;9.204;2022-07-29T03:44:55;0.40;;;0.40;;
13764;SDS011;6953;48.810;9.204;2022-07-29T03:47:25;0.30;;;0.30;;
13764;SDS011;6953;48.810;9.204;2022-07-29T03:49:54;0.40;;;0.40;;
13764;SDS011;6953;48.810;9.204;2022-07-29T03:52:25;0.40;;;0.40;;
13764;SDS011;6953;48.810;9.204;2022-07-29T03:54:50;0.40;;;0.40;;
13764;SDS011;6953;48.810;9.204;2022-07-29T03:57:16;0.30;;;0.30;;
13764;SDS011;6953;48.810;9.204;2022-07-29T03:59:45;0.40;;;0.40;;
13764;SDS011;6953;48.810;9.204;2022-07-29T04:02:11;0.40;;;0.40;;
13764;SDS011;6953;48.810;9.204;2022-07-29T04:04:37;0.40;;;0.40;;
13764;SDS011;6953;48.810;9.204;2022-07-29T04:07:03;0.40;;;0.40;;
13764;SDS011;6953;48.810;9.204;2022-07-29T04:09:29;0.43;;;0.43;;
13764;SDS011;6953;48.810;9.204;2022-07-29T04:11:54;0.32;;;0.32;;
13764;SDS011;6953;48.810;9.204;2022-07-29T04:14:20;0.40;;;0.40;;
13764;SDS011;6953;48.810;9.204;2022-07-29T04:16:46;0.43;;;0.43;;
13764;SDS011;6953;48.810;9.204;2022-07-29T04:19:11;0.50;;;0.50;;
13764;SDS011;6953;48.810;9.204;2022-07-29T04:21:39;0.40;;;0.40;;
13764;SDS011;6953;48.810;9.204;2022-07-29T04:24:05;0.50;;;0.50;;
13764;SDS011;6953;48.810;9.204;2022-07-29T04:26:32;0.45;;;0.45;;
13764;SDS011;6953;48.810;9.204;2022-07-29T04:28:57;0.40;;;0.40;;
13764;SDS011;6953;48.810;9.204;2022-07-29T04:31:23;0.40;;;0.40;;
13764;SDS011;6953;48.810;9.204;2022-07-29T04:33:48;0.40;;;0.40;;
13764;SDS011;6953;48.810;9.204;2022-07-29T04:36:13;0.40;;;0.40;;
13764;SDS011;6953;48.810;9.204;2022-07-29T04:38:39;0.40;;;0.40;;
13764;SDS011;6953;48.810;9.204;2022-07-29T04:41:05;0.40;;;0.40;;
13764;SDS011;6953;48.810;9.204;2022-07-29T04:43:32;0.40;;;0.40;;
13764;SDS011;6953;48.810;9.204;2022-07-29T04:45:58;0.40;;;0.40;;
13764;SDS011;6953;48.810;9.204;2022-07-29T04:48:24;0.30;;;0.30;;
13764;SDS011;6953;48.810;9.204;2022-07-29T04:50:50;0.30;;;0.30;;
13764;SDS011;6953;48.810;9.204;2022-07-29T04:53:15;0.40;;;0.40;;
13764;SDS011;6953;48.810;9.204;2022-07-29T04:55:40;0.30;;;0.30;;
13764;SDS011;6953;48.810;9.204;2022-07-29T04:58:06;0.30;;;0.30;;
13764;SDS011;6953;48.810;9.204;2022-07-29T05:00:32;0.30;;;0.30;;
13764;SDS011;6953;48.810;9.204;2022-07-29T05:02:58;0.30;;;0.30;;
13764;SDS011;6953;48.810;9.204;2022-07-29T05:05:23;0.40;;;0.40;;
13764;SDS011;6953;48.810;9.204;2022-07-29T05:07:48;0.40;;;0.40;;
13764;SDS011;6953;48.810;9.204;2022-07-29T05:10:14;0.32;;;0.32;;
13764;SDS011;6953;48.810;9.204;2022-07-29T05:12:39;0.30;;;0.30;;
13764;SDS011;6953;48.810;9.204;2022-07-29T05:15:04;0.30;;;0.30;;
13764;SDS011;6953;48.810;9.204;2022-07-29T05:17:30;0.30;;;0.30;;
13764;SDS011;6953;48.810;9.204;2022-07-29T05:19:56;0.30;;;0.30;;
13764;SDS011;6953;48.810;9.204;2022-07-29T05:22:21;0.20;;;0.20;;
13764;SDS011;6953;48.810;9.204;2022-07-29T05:24:46;0.13;;;0.13;;
13764;SDS011;6953;48.810;9.204;2022-07-29T05:27:12;0.20;;;0.20;;
13764;SDS011;6953;48.810;9.204;2022-07-29T05:29:37;0.20;;;0.20;;
13764;SDS011;6953;48.810;9.204;2022-07-29T05:32:03;0.20;;;0.20;;
13764;SDS011;6953;48.810;9.204;2022-07-29T05:34:29;0.20;;;0.20;;
13764;SDS011;6953;48.810;9.204;2022-07-29T05:36:55;0.25;;;0.25;;
13764;SDS011;6953;48.810;9.204;2022-07-29T05:39:20;0.28;;;0.28;;
13764;SDS011;6953;48.810;9.204;2022-07-29T05:41:45;0.30;;;0.30;;
13764;SDS011;6953;48.810;9.204;2022-07-29T05:44:11;0.20;;;0.20;;
13764;SDS011;6953;48.810;9.204;2022-07-29T05:46:38;0.30;;;0.30;;
13764;SDS011;6953;48.810;9.204;2022-07-29T05:49:03;0.20;;;0.20;;
13764;SDS011;6953;48.810;9.204;2022-07-29T05:51:29;0.20;;;0.20;;
13764;SDS011;6953;48.810;9.204;2022-07-29T05:53:55;0.20;;;0.20;;
13764;SDS011;6953;48.810;9.204;2022-07-29T05:56:20;0.20;;;0.20;;
13764;SDS011;6953;48.810;9.204;2022-07-29T05:58:45;0.30;;;0.30;;
13764;SDS011;6953;48.810;9.204;2022-07-29T06:01:11;0.20;;;0.20;;
13764;SDS011;6953;48.810;9.204;2022-07-29T06:03:36;0.20;;;0.20;;
13764;SDS011;6953;48.810;9.204;2022-07-29T06:06:03;0.20;;;0.20;;
13764;SDS011;6953;48.810;9.204;2022-07-29T06:08:28;0.20;;;0.20;;
13764;SDS011;6953;48.810;9.204;2022-07-29T06:10:54;0.10;;;0.10;;
13764;SDS011;6953;48.810;9.204;2022-07-29T06:13:19;0.10;;;0.10;;
13764;SDS011;6953;48.810;9.204;2022-07-29T06:15:44;0.10;;;0.10;;
13764;SDS011;6953;48.810;9.204;2022-07-29T06:18:10;0.20;;;0.20;;
13764;SDS011;6953;48.810;9.204;2022-07-29T06:20:35;0.10;;;0.10;;
13764;SDS011;6953;48.810;9.204;2022-07-29T06:23:01;0.10;;;0.10;;
13764;SDS011;6953;48.810;9.204;2022-07-29T06:25:29;0.00;;;0.00;;
13764;SDS011;6953;48.810;9.204;2022-07-29T06:27:55;0.00;;;0.00;;
13764;SDS011;6953;48.810;9.204;2022-07-29T06:30:21;0.00;;;0.00;;
13764;SDS011;6953;48.810;9.204;2022-07-29T06:32:47;0.00;;;0.00;;
13764;SDS011;6953;48.810;9.204;2022-07-29T06:35:12;0.00;;;0.00;;
13764;SDS011;6953;48.810;9.204;2022-07-29T06:37:37;0.00;;;0.00;;
13764;SDS011;6953;48.810;9.204;2022-07-29T06:40:03;0.00;;;0.00;;
13764;SDS011;6953;48.810;9.204;2022-07-29T06:42:47;0.00;;;0.00;;
13764;SDS011;6953;48.810;9.204;2022-07-29T06:45:12;0.00;;;0.00;;
13764;SDS011;6953;48.810;9.204;2022-07-29T06:47:38;0.00;;;0.00;;
13764;SDS011;6953;48.810;9.204;2022-07-29T06:50:04;0.00;;;0.00;;
13764;SDS011;6953;48.810;9.204;2022-07-29T06:52:30;0.00;;;0.00;;
13764;SDS011;6953;48.810;9.204;2022-07-29T06:54:55;0.03;;;0.03;;
13764;SDS011;6953;48.810;9.204;2022-07-29T06:57:21;0.00;;;0.00;;
13764;SDS011;6953;48.810;9.204;2022-07-29T06:59:46;0.00;;;0.00;;
13764;SDS011;6953;48.810;9.204;2022-07-29T07:02:12;0.00;;;0.00;;
13764;SDS011;6953;48.810;9.204;2022-07-29T07:04:38;0.00;;;0.00;;
13764;SDS011;6953;48.810;9.204;2022-07-29T07:07:03;0.00;;;0.00;;
13764;SDS011;6953;48.810;9.204;2022-07-29T07:09:28;0.00;;;0.00;;
13764;SDS011;6953;48.810;9.204;2022-07-29T07:11:54;0.00;;;0.00;;
13764;SDS011;6953;48.810;9.204;2022-07-29T07:14:19;0.00;;;0.00;;
13764;SDS011;6953;48.810;9.204;2022-07-29T07:16:44;0.00;;;0.00;;
13764;SDS011;6953;48.810;9.204;2022-07-29T07:19:10;0.10;;;0.10;;
13764;SDS011;6953;48.810;9.204;2022-07-29T07:21:35;0.05;;;0.05;;
13764;SDS011;6953;48.810;9.204;2022-07-29T07:24:00;0.10;;;0.10;;
13764;SDS011;6953;48.810;9.204;2022-07-29T07:26:26;0.08;;;0.08;;
13764;SDS011;6953;48.810;9.204;2022-07-29T07:28:52;0.10;;;0.10;;
13764;SDS011;6953;48.810;9.204;2022-07-29T07:31:17;0.10;;;0.10;;
13764;SDS011;6953;48.810;9.204;2022-07-29T07:33:43;0.10;;;0.10;;
13764;SDS011;6953;48.810;9.204;2022-07-29T07:36:08;0.10;;;0.10;;
13764;SDS011;6953;48.810;9.204;2022-07-29T07:38:34;0.10;;;0.10;;
13764;SDS011;6953;48.810;9.204;2022-07-29T07:41:00;0.10;;;0.10;;
13764;SDS011;6953;48.810;9.204;2022-07-29T07:43:26;0.05;;;0.05;;
13764;SDS011;6953;48.810;9.204;2022-07-29T07:45:51;0.10;;;0.10;;
13764;SDS011;6953;48.810;9.204;2022-07-29T07:48:16;0.10;;;0.10;;
13764;SDS011;6953;48.810;9.204;2022-07-29T07:50:42;0.10;;;0.10;;
13764;SDS011;6953;48.810;9.204;2022-07-29T07:53:08;0.10;;;0.10;;
13764;SDS011;6953;48.810;9.204;2022-07-29T07:55:38;0.00;;;0.00;;
13764;SDS011;6953;48.810;9.204;2022-07-29T07:58:05;0.00;;;0.00;;
13764;SDS011;6953;48.810;9.204;2022-07-29T08:00:30;0.00;;;0.00;;
13764;SDS011;6953;48.810;9.204;2022-07-29T08:02:57;0.00;;;0.00;;
13764;SDS011;6953;48.810;9.204;2022-07-29T08:05:22;0.00;;;0.00;;
13764;SDS011;6953;48.810;9.204;2022-07-29T08:07:47;0.00;;;0.00;;
13764;SDS011;6953;48.810;9.204;2022-07-29T08:10:14;0.00;;;0.00;;
13764;SDS011;6953;48.810;9.204;2022-07-29T08:13:01;0.10;;;0.10;;
13764;SDS011;6953;48.810;9.204;2022-07-29T08:15:30;0.10;;;0.10;;
13764;SDS011;6953;48.810;9.204;2022-07-29T08:17:55;0.10;;;0.10;;
13764;SDS011;6953;48.810;9.204;2022-07-29T08:20:21;0.00;;;0.00;;
13764;SDS011;6953;48.810;9.204;2022-07-29T08:22:46;0.00;;;0.00;;
13764;SDS011;6953;48.810;9.204;2022-07-29T08:25:11;0.03;;;0.03;;
13764;SDS011;6953;48.810;9.204;2022-07-29T08:27:37;0.10;;;0.10;;
13764;SDS011;6953;48.810;9.204;2022-07-29T08:30:02;0.00;;;0.00;;
13764;SDS011;6953;48.810;9.204;2022-07-29T08:32:28;0.00;;;0.00;;
13764;SDS011;6953;48.810;9.204;2022-07-29T08:34:53;0.00;;;0.00;;
13764;SDS011;6953;48.810;9.204;2022-07-29T08:37:19;0.10;;;0.10;;
13764;SDS011;6953;48.810;9.204;2022-07-29T08:39:46;0.08;;;0.08;;
13764;SDS011;6953;48.810;9.204;2022-07-29T08:42:12;0.10;;;0.10;;
13764;SDS011;6953;48.810;9.204;2022-07-29T08:44:41;0.00;;;0.00;;
13764;SDS011;6953;48.810;9.204;2022-07-29T08:47:08;0.03;;;0.03;;
13764;SDS011;6953;48.810;9.204;2022-07-29T08:49:35;0.00;;;0.00;;
13764;SDS011;6953;48.810;9.204;2022-07-29T08:52:01;0.10;;;0.10;;
13764;SDS011;6953;48.810;9.204;2022-07-29T08:54:27;0.00;;;0.00;;
13764;SDS011;6953;48.810;9.204;2022-07-29T08:56:54;0.10;;;0.10;;
13764;SDS011;6953;48.810;9.204;2022-07-29T08:59:20;0.00;;;0.00;;
13764;SDS011;6953;48.810;9.204;2022-07-29T09:01:47;0.10;;;0.10;;
13764;SDS011;6953;48.810;9.204;2022-07-29T09:04:15;0.00;;;0.00;;
13764;SDS011;6953;48.810;9.204;2022-07-29T09:06:43;0.00;;;0.00;;
13764;SDS011;6953;48.810;9.204;2022-07-29T09:09:11;0.08;;;0.08;;
13764;SDS011;6953;48.810;9.204;2022-07-29T09:11:38;0.08;;;0.08;;
13764;SDS011;6953;48.810;9.204;2022-07-29T09:14:04;0.10;;;0.10;;
13764;SDS011;6953;48.810;9.204;2022-07-29T09:19:22;0.00;;;0.00;;
13764;SDS011;6953;48.810;9.204;2022-07-29T09:21:49;0.00;;;0.00;;
13764;SDS011;6953;48.810;9.204;2022-07-29T09:24:28;0.00;;;0.00;;
13764;SDS011;6953;48.810;9.204;2022-07-29T09:29:54;0.00;;;0.00;;
13764;SDS011;6953;48.810;9.204;2022-07-29T09:32:59;0.00;;;0.00;;
13764;SDS011;6953;48.810;9.204;2022-07-29T09:35:26;0.00;;;0.00;;
13764;SDS011;6953;48.810;9.204;2022-07-29T09:37:52;0.00;;;0.00;;
13764;SDS011;6953;48.810;9.204;2022-07-29T09:40:22;0.10;;;0.10;;
13764;SDS011;6953;48.810;9.204;2022-07-29T09:42:50;0.10;;;0.10;;
13764;SDS011;6953;48.810;9.204;2022-07-29T09:45:29;0.00;;;0.00;;
13764;SDS011;6953;48.810;9.204;2022-07-29T09:47:55;0.10;;;0.10;;
13764;SDS011;6953;48.810;9.204;2022-07-29T09:50:38;0.00;;;0.00;;
13764;SDS011;6953;48.810;9.204;2022-07-29T09:53:04;0.00;;;0.00;;
13764;SDS011;6953;48.810;9.204;2022-07-29T09:55:30;0.00;;;0.00;;
13764;SDS011;6953;48.810;9.204;2022-07-29T09:58:14;0.00;;;0.00;;
13764;SDS011;6953;48.810;9.204;2022-07-29T10:00:42;0.00;;;0.00;;
13764;SDS011;6953;48.810;9.204;2022-07-29T10:03:08;0.00;;;0.00;;
13764;SDS011;6953;48.810;9.204;2022-07-29T10:05:33;0.03;;;0.03;;
13764;SDS011;6953;48.810;9.204;2022-07-29T10:07:59;0.00;;;0.00;;
13764;SDS011;6953;48.810;9.204;2022-07-29T10:10:27;0.00;;;0.00;;
13764;SDS011;6953;48.810;9.204;2022-07-29T10:15:27;0.00;;;0.00;;
13764;SDS011;6953;48.810;9.204;2022-07-29T10:18:04;0.10;;;0.10;;
13764;SDS011;6953;48.810;9.204;2022-07-29T10:20:31;0.10;;;0.10;;
13764;SDS011;6953;48.810;9.204;2022-07-29T10:22:56;0.00;;;0.00;;
13764;SDS011;6953;48.810;9.204;2022-07-29T10:25:22;0.10;;;0.10;;
13764;SDS011;6953;48.810;9.204;2022-07-29T10:27:49;0.00;;;0.00;;
13764;SDS011;6953;48.810;9.204;2022-07-29T10:30:19;0.10;;;0.10;;
13764;SDS011;6953;48.810;9.204;2022-07-29T10:41:17;0.10;;;0.10;;
13764;SDS011;6953;48.810;9.204;2022-07-29T10:43:54;0.10;;;0.10;;
13764;SDS011;6953;48.810;9.204;2022-07-29T10:46:23;0.10;;;0.10;;
13764;SDS011;6953;48.810;9.204;2022-07-29T10:49:11;0.10;;;0.10;;
13764;SDS011;6953;48.810;9.204;2022-07-29T10:52:00;0.20;;;0.20;;
13764;SDS011;6953;48.810;9.204;2022-07-29T11:05:01;0.20;;;0.20;;
13764;SDS011;6953;48.810;9.204;2022-07-29T11:07:28;0.30;;;0.30;;
13764;SDS011;6953;48.810;9.204;2022-07-29T11:15:04;0.70;;;0.70;;
13764;SDS011;6953;48.810;9.204;2022-07-29T11:31:34;0.00;;;0.00;;
13764;SDS011;6953;48.810;9.204;2022-07-29T11:47:30;0.10;;;0.10;;
13764;SDS011;6953;48.810;9.204;2022-07-29T11:49:57;0.10;;;0.10;;
13764;SDS011;6953;48.810;9.204;2022-07-29T11:55:08;0.10;;;0.10;;
13764;SDS011;6953;48.810;9.204;2022-07-29T11:57:36;0.10;;;0.10;;
13764;SDS011;6953;48.810;9.204;2022-07-29T12:00:03;0.10;;;0.10;;
13764;SDS011;6953;48.810;9.204;2022-07-29T12:02:40;0.10;;;0.10;;
13764;SDS011;6953;48.810;9.204;2022-07-29T12:05:07;0.10;;;0.10;;
13764;SDS011;6953;48.810;9.204;2022-07-29T12:07:34;0.10;;;0.10;;
13764;SDS011;6953;48.810;9.204;2022-07-29T12:10:00;0.10;;;0.10;;
13764;SDS011;6953;48.810;9.204;2022-07-29T12:12:26;0.10;;;0.10;;
13764;SDS011;6953;48.810;9.204;2022-07-29T12:14:52;0.10;;;0.10;;
13764;SDS011;6953;48.810;9.204;2022-07-29T12:17:26;0.10;;;0.10;;
13764;SDS011;6953;48.810;9.204;2022-07-29T12:19:54;0.10;;;0.10;;
13764;SDS011;6953;48.810;9.204;2022-07-29T12:22:24;0.10;;;0.10;;
13764;SDS011;6953;48.810;9.204;2022-07-29T12:25:01;0.00;;;0.00;;
13764;SDS011;6953;48.810;9.204;2022-07-29T12:27:32;0.10;;;0.10;;
13764;SDS011;6953;48.810;9.204;2022-07-29T12:30:15;0.08;;;0.08;;
13764;SDS011;6953;48.810;9.204;2022-07-29T12:32:43;0.10;;;0.10;;
13764;SDS011;6953;48.810;9.204;2022-07-29T12:35:12;0.10;;;0.10;;
13764;SDS011;6953;48.810;9.204;2022-07-29T12:37:40;0.10;;;0.10;;
13764;SDS011;6953;48.810;9.204;2022-07-29T12:40:07;0.10;;;0.10;;
13764;SDS011;6953;48.810;9.204;2022-07-29T12:42:34;0.00;;;0.00;;
13764;SDS011;6953;48.810;9.204;2022-07-29T12:45:00;0.10;;;0.10;;
13764;SDS011;6953;48.810;9.204;2022-07-29T12:47:26;0.00;;;0.00;;
13764;SDS011;6953;48.810;9.204;2022-07-29T12:50:07;0.00;;;0.00;;
13764;SDS011;6953;48.810;9.204;2022-07-29T12:52:36;0.00;;;0.00;;
13764;SDS011;6953;48.810;9.204;2022-07-29T12:55:02;0.08;;;0.08;;
13764;SDS011;6953;48.810;9.204;2022-07-29T12:57:28;0.10;;;0.10;;
13764;SDS011;6953;48.810;9.204;2022-07-29T13:00:04;0.10;;;0.10;;
13764;SDS011;6953;48.810;9.204;2022-07-29T13:02:35;0.03;;;0.03;;
13764;SDS011;6953;48.810;9.204;2022-07-29T13:05:02;0.10;;;0.10;;
13764;SDS011;6953;48.810;9.204;2022-07-29T13:07:30;0.10;;;0.10;;
13764;SDS011;6953;48.810;9.204;2022-07-29T13:10:11;0.10;;;0.10;;
13764;SDS011;6953;48.810;9.204;2022-07-29T13:15:39;0.00;;;0.00;;
13764;SDS011;6953;48.810;9.204;2022-07-29T13:18:25;0.00;;;0.00;;
13764;SDS011;6953;48.810;9.204;2022-07-29T13:20:52;0.00;;;0.00;;
13764;SDS011;6953;48.810;9.204;2022-07-29T13:23:17;0.10;;;0.10;;
13764;SDS011;6953;48.810;9.204;2022-07-29T13:25:42;0.00;;;0.00;;
13764;SDS011;6953;48.810;9.204;2022-07-29T13:28:08;0.10;;;0.10;;
13764;SDS011;6953;48.810;9.204;2022-07-29T13:30:33;0.00;;;0.00;;
13764;SDS011;6953;48.810;9.204;2022-07-29T13:32:59;0.10;;;0.10;;
13764;SDS011;6953;48.810;9.204;2022-07-29T13:35:24;0.10;;;0.10;;
13764;SDS011;6953;48.810;9.204;2022-07-29T13:37:49;0.10;;;0.10;;
13764;SDS011;6953;48.810;9.204;2022-07-29T13:40:15;0.10;;;0.10;;
13764;SDS011;6953;48.810;9.204;2022-07-29T13:42:41;0.10;;;0.10;;
13764;SDS011;6953;48.810;9.204;2022-07-29T13:45:08;0.10;;;0.10;;
13764;SDS011;6953;48.810;9.204;2022-07-29T13:47:35;0.10;;;0.10;;
13764;SDS011;6953;48.810;9.204;2022-07-29T13:50:01;0.10;;;0.10;;
13764;SDS011;6953;48.810;9.204;2022-07-29T13:52:26;0.10;;;0.10;;
13764;SDS011;6953;48.810;9.204;2022-07-29T13:54:52;0.10;;;0.10;;
13764;SDS011;6953;48.810;9.204;2022-07-29T13:57:17;0.10;;;0.10;;
13764;SDS011;6953;48.810;9.204;2022-07-29T13:59:43;0.10;;;0.10;;
13764;SDS011;6953;48.810;9.204;2022-07-29T14:02:10;0.10;;;0.10;;
13764;SDS011;6953;48.810;9.204;2022-07-29T14:04:37;0.10;;;0.10;;
13764;SDS011;6953;48.810;9.204;2022-07-29T14:07:03;0.10;;;0.10;;
13764;SDS011;6953;48.810;9.204;2022-07-29T14:09:29;0.10;;;0.10;;
13764;SDS011;6953;48.810;9.204;2022-07-29T14:11:55;0.10;;;0.10;;
13764;SDS011;6953;48.810;9.204;2022-07-29T14:14:20;0.00;;;0.00;;
13764;SDS011;6953;48.810;9.204;2022-07-29T14:16:46;0.00;;;0.00;;
13764;SDS011;6953;48.810;9.204;2022-07-29T14:19:11;0.00;;;0.00;;
13764;SDS011;6953;48.810;9.204;2022-07-29T14:21:37;0.10;;;0.10;;
13764;SDS011;6953;48.810;9.204;2022-07-29T14:24:04;0.10;;;0.10;;
13764;SDS011;6953;48.810;9.204;2022-07-29T14:26:30;0.10;;;0.10;;
13764;SDS011;6953;48.810;9.204;2022-07-29T14:28:55;0.10;;;0.10;;
13764;SDS011;6953;48.810;9.204;2022-07-29T14:31:20;0.00;;;0.00;;
13764;SDS011;6953;48.810;9.204;2022-07-29T14:33:46;0.00;;;0.00;;
13764;SDS011;6953;48.810;9.204;2022-07-29T14:36:11;0.00;;;0.00;;
13764;SDS011;6953;48.810;9.204;2022-07-29T14:38:37;0.08;;;0.08;;
13764;SDS011;6953;48.810;9.204;2022-07-29T14:41:03;0.00;;;0.00;;
13764;SDS011;6953;48.810;9.204;2022-07-29T14:43:29;0.00;;;0.00;;
13764;SDS011;6953;48.810;9.204;2022-07-29T14:45:54;0.00;;;0.00;;
13764;SDS011;6953;48.810;9.204;2022-07-29T14:48:20;0.00;;;0.00;;
13764;SDS011;6953;48.810;9.204;2022-07-29T14:50:45;0.00;;;0.00;;
13764;SDS011;6953;48.810;9.204;2022-07-29T14:53:11;0.00;;;0.00;;
13764;SDS011;6953;48.810;9.204;2022-07-29T14:55:40;0.10;;;0.10;;
13764;SDS011;6953;48.810;9.204;2022-07-29T14:58:06;0.03;;;0.03;;
13764;SDS011;6953;48.810;9.204;2022-07-29T15:00:32;0.00;;;0.00;;
13764;SDS011;6953;48.810;9.204;2022-07-29T15:02:59;0.10;;;0.10;;
13764;SDS011;6953;48.810;9.204;2022-07-29T15:05:25;0.00;;;0.00;;
13764;SDS011;6953;48.810;9.204;2022-07-29T15:07:51;0.00;;;0.00;;
13764;SDS011;6953;48.810;9.204;2022-07-29T15:10:17;0.10;;;0.10;;
13764;SDS011;6953;48.810;9.204;2022-07-29T15:12:45;0.00;;;0.00;;
13764;SDS011;6953;48.810;9.204;2022-07-29T15:15:11;0.00;;;0.00;;
13764;SDS011;6953;48.810;9.204;2022-07-29T15:17:36;0.10;;;0.10;;
13764;SDS011;6953;48.810;9.204;2022-07-29T15:20:02;0.00;;;0.00;;
13764;SDS011;6953;48.810;9.204;2022-07-29T15:22:28;0.00;;;0.00;;
13764;SDS011;6953;48.810;9.204;2022-07-29T15:24:53;0.10;;;0.10;;
13764;SDS011;6953;48.810;9.204;2022-07-29T15:27:19;0.00;;;0.00;;
13764;SDS011;6953;48.810;9.204;2022-07-29T15:29:44;0.00;;;0.00;;
13764;SDS011;6953;48.810;9.204;2022-07-29T15:32:09;0.10;;;0.10;;
13764;SDS011;6953;48.810;9.204;2022-07-29T15:34:35;0.00;;;0.00;;
13764;SDS011;6953;48.810;9.204;2022-07-29T15:37:01;0.00;;;0.00;;
13764;SDS011;6953;48.810;9.204;2022-07-29T15:39:27;0.00;;;0.00;;
13764;SDS011;6953;48.810;9.204;2022-07-29T15:41:52;0.10;;;0.10;;
13764;SDS011;6953;48.810;9.204;2022-07-29T15:44:18;0.00;;;0.00;;
13764;SDS011;6953;48.810;9.204;2022-07-29T15:46:43;0.03;;;0.03;;
13764;SDS011;6953;48.810;9.204;2022-07-29T15:49:27;0.00;;;0.00;;
13764;SDS011;6953;48.810;9.204;2022-07-29T15:51:57;0.10;;;0.10;;
13764;SDS011;6953;48.810;9.204;2022-07-29T15:54:23;0.10;;;0.10;;
13764;SDS011;6953;48.810;9.204;2022-07-29T15:56:49;0.00;;;0.00;;
13764;SDS011;6953;48.810;9.204;2022-07-29T15:59:15;0.00;;;0.00;;
13764;SDS011;6953;48.810;9.204;2022-07-29T16:01:40;0.00;;;0.00;;
13764;SDS011;6953;48.810;9.204;2022-07-29T16:04:05;0.00;;;0.00;;
13764;SDS011;6953;48.810;9.204;2022-07-29T16:06:31;0.00;;;0.00;;
13764;SDS011;6953;48.810;9.204;2022-07-29T16:08:56;0.10;;;0.10;;
13764;SDS011;6953;48.810;9.204;2022-07-29T16:11:22;0.00;;;0.00;;
13764;SDS011;6953;48.810;9.204;2022-07-29T16:13:48;0.00;;;0.00;;
13764;SDS011;6953;48.810;9.204;2022-07-29T16:16:14;0.05;;;0.05;;
13764;SDS011;6953;48.810;9.204;2022-07-29T16:18:40;0.00;;;0.00;;
13764;SDS011;6953;48.810;9.204;2022-07-29T16:21:06;0.00;;;0.00;;
13764;SDS011;6953;48.810;9.204;2022-07-29T16:23:31;0.10;;;0.10;;